Time;durP1;ratioP1;P1;durP2;ratioP2;P2;SDS_P1;SDS_P2;PMS_P1;PMS_P2;Temp;Humidity;BMP_temperature;BMP_pressure;BME280_temperature;BME280_humidity;BME280_pressure;Samples;Min_cycle;Max_cycle;Signal;HPM_P1;HPM_P2
2023/06/19 00:02:01;;;;;;;7.40;4.80;;;;;;;18.53;88.53;98788.98;105524;1254;61134;-24
2023/06/19 00:04:28;;;;;;;4.40;3.70;;;;;;;18.35;89.93;98787.88;105615;1253;72732;-23
2023/06/19 00:06:55;;;;;;;5.10;4.00;;;;;;;18.66;88.76;98782.50;105699;1259;74214;-24
2023/06/19 00:09:22;;;;;;;7.10;5.30;;;;;;;18.79;87.46;98788.02;105607;1255;72621;-23
2023/06/19 00:11:49;;;;;;;8.20;4.70;;;;;;;18.66;87.43;98794.80;105772;1254;61206;-23
2023/06/19 00:14:17;;;;;;;5.90;4.50;;;;;;;18.43;88.42;98806.34;105843;1258;61099;-24
2023/06/19 00:16:44;;;;;;;6.70;4.40;;;;;;;18.37;89.19;98815.83;105848;1253;74271;-23
2023/06/19 00:19:12;;;;;;;8.60;4.90;;;;;;;18.72;87.68;98813.56;105486;1260;74315;-24
2023/06/19 00:21:38;;;;;;;6.00;4.70;;;;;;;18.73;86.97;98813.60;105462;1259;72846;-24
2023/06/19 00:24:05;;;;;;;7.80;4.90;;;;;;;18.58;87.58;98819.48;105609;1255;61041;-24
2023/06/19 00:26:33;;;;;;;13.00;5.10;;;;;;;18.34;88.57;98819.41;105828;1259;61187;-24
2023/06/19 00:29:00;;;;;;;4.00;3.60;;;;;;;18.26;89.53;98823.30;105817;1259;73709;-24
2023/06/19 00:31:28;;;;;;;7.30;4.70;;;;;;;18.46;88.47;98815.30;105712;1258;74255;-24
2023/06/19 00:33:55;;;;;;;9.90;5.50;;;;;;;18.59;87.28;98814.94;105830;1253;72628;-24
2023/06/19 00:36:26;;;;;;;7.90;5.40;;;;;;;18.44;87.24;98805.27;105344;1258;61061;-24
2023/06/19 00:38:53;;;;;;;10.90;5.30;;;;;;;18.16;88.69;98804.48;105423;1259;62410;-24
2023/06/19 00:41:20;;;;;;;5.40;4.00;;;;;;;18.02;90.04;98808.75;105588;1259;73772;-24
2023/06/19 00:43:46;;;;;;;6.90;4.60;;;;;;;18.34;88.42;98805.45;105749;1257;74242;-24
2023/06/19 00:46:13;;;;;;;10.10;4.70;;;;;;;18.43;87.32;98807.04;105576;1257;73151;-23
2023/06/19 00:48:40;;;;;;;6.80;5.90;;;;;;;18.21;87.87;98801.13;105501;1253;61053;-23
2023/06/19 00:51:07;;;;;;;6.80;5.40;;;;;;;18.00;89.05;98803.94;105560;1259;61248;-24
2023/06/19 00:53:34;;;;;;;5.60;4.70;;;;;;;17.92;90.09;98799.90;105620;1253;73914;-24
2023/06/19 00:56:01;;;;;;;6.50;5.50;;;;;;;18.26;88.75;98797.23;105643;1258;74238;-23
2023/06/19 00:58:30;;;;;;;9.00;5.60;;;;;;;18.21;88.09;98792.67;105432;1257;72444;-23
2023/06/19 01:00:57;;;;;;;6.40;5.00;;;;;;;18.09;88.48;98790.20;105384;1256;61184;-24
2023/06/19 01:03:37;;;;;;;6.10;4.90;;;;;;;17.81;89.97;98791.86;105504;1259;61301;-23
2023/06/19 01:06:14;;;;;;;5.60;4.20;;;;;;;17.79;90.74;98798.13;105691;1260;73716;-24
2023/06/19 01:08:46;;;;;;;7.00;5.40;;;;;;;18.15;88.71;98790.62;105539;1265;73365;-24
2023/06/19 01:11:17;;;;;;;5.40;4.90;;;;;;;18.10;88.32;98785.73;105542;1256;72725;-23
2023/06/19 01:13:57;;;;;;;6.40;5.60;;;;;;;17.92;89.09;98785.85;105204;1259;61158;-23
2023/06/19 01:16:25;;;;;;;6.50;4.20;;;;;;;17.86;89.72;98794.09;105492;1260;61110;-24
2023/06/19 01:18:52;;;;;;;5.50;4.90;;;;;;;18.12;88.70;98797.71;105429;1260;73870;-24
2023/06/19 01:21:19;;;;;;;7.30;6.60;;;;;;;18.28;87.01;98795.89;105648;1253;74735;-24
2023/06/19 01:23:46;;;;;;;8.20;6.80;;;;;;;18.17;86.79;98797.52;105660;1257;72632;-24
2023/06/19 01:26:18;;;;;;;9.40;6.60;;;;;;;17.89;87.87;98807.23;105552;1252;61066;-23
2023/06/19 01:28:45;;;;;;;6.60;4.90;;;;;;;17.69;89.23;98819.75;105482;1257;61152;-24
2023/06/19 01:31:20;;;;;;;6.70;5.80;;;;;;;18.02;88.25;98817.38;103861;1257;2644935;-24
2023/06/19 01:33:47;;;;;;;8.20;6.00;;;;;;;18.13;86.95;98818.60;105436;1260;74469;-23
2023/06/19 01:36:16;;;;;;;7.40;5.90;;;;;;;18.05;86.98;98822.09;105698;1257;72640;-24
2023/06/19 01:38:43;;;;;;;7.20;6.40;;;;;;;17.90;87.77;98825.92;105367;1254;61041;-23
2023/06/19 01:41:10;;;;;;;9.00;4.70;;;;;;;17.74;88.60;98823.89;105417;1260;61185;-23
2023/06/19 01:43:37;;;;;;;7.40;5.00;;;;;;;18.03;87.95;98819.17;105320;1260;74428;-24
2023/06/19 01:46:04;;;;;;;6.70;6.00;;;;;;;18.36;85.67;98820.59;105628;1257;74215;-24
2023/06/19 01:48:32;;;;;;;6.80;6.00;;;;;;;18.21;85.76;98820.27;105431;1254;72513;-23
2023/06/19 01:50:59;;;;;;;7.60;5.90;;;;;;;18.09;86.39;98823.10;105358;1259;61118;-24
2023/06/19 01:53:26;;;;;;;4.10;3.50;;;;;;;17.97;87.14;98830.55;105362;1261;61183;-23
2023/06/19 01:55:53;;;;;;;6.00;4.80;;;;;;;18.20;86.56;98829.83;105582;1253;74079;-24
2023/06/19 01:58:21;;;;;;;5.70;4.80;;;;;;;18.45;85.13;98833.50;105526;1260;74495;-24
2023/06/19 02:00:48;;;;;;;6.10;5.00;;;;;;;18.45;84.57;98828.52;105583;1257;72642;-24
2023/06/19 02:03:16;;;;;;;6.10;4.90;;;;;;;18.30;85.09;98832.64;105466;1254;61251;-24
2023/06/19 02:05:43;;;;;;;6.40;5.40;;;;;;;18.11;85.86;98837.72;105649;1258;61129;-24
2023/06/19 02:08:10;;;;;;;4.20;3.30;;;;;;;17.97;86.93;98834.98;105579;1261;73626;-23
2023/06/19 02:10:36;;;;;;;5.00;4.10;;;;;;;18.35;86.20;98830.80;105496;1256;74239;-24
2023/06/19 02:13:03;;;;;;;6.80;5.40;;;;;;;18.72;83.77;98825.38;105573;1254;72524;-24
2023/06/19 02:15:31;;;;;;;6.30;5.20;;;;;;;18.60;83.73;98822.95;105720;1253;61291;-23
2023/06/19 02:17:58;;;;;;;5.40;4.90;;;;;;;18.37;84.61;98816.68;105626;1254;61134;-23
2023/06/19 02:20:25;;;;;;;9.00;5.20;;;;;;;18.16;85.21;98808.36;105670;1258;73694;-24
2023/06/19 02:22:55;;;;;;;8.70;3.60;;;;;;;17.95;86.08;98803.93;105651;1260;74377;-24
2023/06/19 02:25:22;;;;;;;6.60;4.40;;;;;;;18.19;86.17;98800.17;105641;1257;72639;-24
2023/06/19 02:27:49;;;;;;;7.70;4.60;;;;;;;18.40;84.67;98793.48;105604;1258;61164;-24
2023/06/19 02:30:16;;;;;;;4.50;4.10;;;;;;;18.33;84.42;98784.03;105407;1253;61454;-23
2023/06/19 02:32:44;;;;;;;5.50;5.00;;;;;;;18.13;85.03;98785.17;105509;1260;73795;-23
2023/06/19 02:35:11;;;;;;;5.80;4.90;;;;;;;17.87;86.24;98787.92;105390;1258;74750;-23
2023/06/19 02:37:38;;;;;;;3.50;3.00;;;;;;;17.67;87.70;98797.52;105682;1254;72468;-24
2023/06/19 02:40:09;;;;;;;3.60;3.20;;;;;;;18.10;87.07;98806.04;105488;1254;61156;-24
2023/06/19 02:42:36;;;;;;;4.00;3.50;;;;;;;18.54;84.81;98814.98;105676;1257;61074;-23
2023/06/19 02:45:04;;;;;;;5.20;3.70;;;;;;;18.62;83.41;98823.22;105775;1254;73810;-24
2023/06/19 02:47:31;;;;;;;3.80;3.50;;;;;;;18.47;83.18;98831.06;105712;1261;74196;-23
2023/06/19 02:49:58;;;;;;;4.30;3.70;;;;;;;18.25;83.84;98837.58;105567;1257;72703;-24
2023/06/19 02:52:27;;;;;;;3.30;2.80;;;;;;;18.00;85.65;98839.40;105491;1255;61149;-23
2023/06/19 02:54:54;;;;;;;4.10;3.70;;;;;;;18.34;85.41;98842.11;105334;1255;61143;-24
2023/06/19 02:57:21;;;;;;;3.80;3.40;;;;;;;18.69;83.48;98845.95;105390;1260;74280;-24
2023/06/19 02:59:48;;;;;;;4.30;3.90;;;;;;;18.57;83.62;98860.52;105472;1262;74334;-23
2023/06/19 03:02:15;;;;;;;5.70;4.30;;;;;;;18.49;83.93;98868.56;105480;1256;71421;-23
2023/06/19 03:04:44;;;;;;;3.40;3.10;;;;;;;18.30;84.68;98876.07;105455;1254;61977;-23
2023/06/19 03:07:13;;;;;;;4.10;3.70;;;;;;;18.51;84.48;98883.39;105558;1257;61055;-23
2023/06/19 03:09:40;;;;;;;4.30;3.90;;;;;;;18.62;83.56;98888.58;105755;1257;73546;-24
2023/06/19 03:12:09;;;;;;;4.70;4.00;;;;;;;18.26;84.48;98891.49;105671;1267;73426;-23
2023/06/19 03:14:37;;;;;;;6.00;3.70;;;;;;;17.90;86.48;98889.59;105435;1259;72582;-24
2023/06/19 03:17:04;;;;;;;3.40;3.10;;;;;;;17.86;86.99;98889.53;105679;1255;62120;-24
2023/06/19 03:19:32;;;;;;;4.60;3.60;;;;;;;18.27;84.67;98885.92;105555;1258;61056;-24
2023/06/19 03:21:59;;;;;;;4.20;3.80;;;;;;;18.54;83.13;98872.15;105639;1255;73829;-23
2023/06/19 03:24:26;;;;;;;4.40;3.60;;;;;;;18.57;82.23;98864.92;105650;1264;74730;-23
2023/06/19 03:26:54;;;;;;;4.10;3.70;;;;;;;18.43;82.40;98855.27;105712;1259;72338;-24
2023/06/19 03:29:21;;;;;;;2.60;2.30;;;;;;;18.23;83.02;98834.25;105815;1254;62423;-24
2023/06/19 03:31:53;;;;;;;3.50;3.10;;;;;;;18.51;82.83;98819.92;105678;1255;61165;-24
2023/06/19 03:34:21;;;;;;;3.60;3.20;;;;;;;18.95;81.03;98815.44;105907;1256;73858;-23
2023/06/19 03:36:49;;;;;;;4.50;3.90;;;;;;;19.18;79.40;98818.17;105661;1254;74393;-23
2023/06/19 03:39:16;;;;;;;4.10;3.70;;;;;;;19.25;78.90;98818.38;105617;1254;72651;-23
2023/06/19 03:41:44;;;;;;;3.60;3.30;;;;;;;19.21;78.88;98821.47;105527;1254;61133;-23
2023/06/19 03:44:11;;;;;;;2.90;2.40;;;;;;;19.23;78.88;98824.04;105661;1254;61120;-24
2023/06/19 03:46:38;;;;;;;3.30;3.00;;;;;;;19.73;77.02;98822.73;105760;1254;73767;-23
2023/06/19 03:49:06;;;;;;;4.00;2.90;;;;;;;20.07;75.17;98815.39;105549;1258;74333;-23
2023/06/19 03:51:34;;;;;;;3.90;3.50;;;;;;;20.02;75.06;98815.67;105689;1252;72701;-23
2023/06/19 03:54:01;;;;;;;4.00;3.60;;;;;;;19.72;75.47;98811.02;105811;1254;61137;-23
2023/06/19 03:56:29;;;;;;;4.90;3.40;;;;;;;19.52;76.39;98809.05;105507;1258;61173;-23
2023/06/19 03:58:56;;;;;;;4.90;3.70;;;;;;;19.29;77.21;98801.45;105527;1258;72814;-24
2023/06/19 04:01:22;;;;;;;5.90;2.10;;;;;;;19.22;78.40;98800.60;105436;1259;74353;-23
2023/06/19 04:03:52;;;;;;;3.40;2.70;;;;;;;19.88;76.49;98795.14;105505;1256;72559;-23
2023/06/19 04:06:19;;;;;;;3.40;3.10;;;;;;;20.51;73.31;98788.78;105696;1254;61053;-23
2023/06/19 04:08:46;;;;;;;6.30;3.50;;;;;;;20.61;72.29;98786.19;105605;1258;61167;-23
2023/06/19 04:11:13;;;;;;;8.50;3.40;;;;;;;20.48;72.65;98780.84;105847;1254;74315;-24
2023/06/19 04:13:40;;;;;;;5.50;3.60;;;;;;;20.37;72.72;98775.53;105662;1258;74686;-23
2023/06/19 04:16:08;;;;;;;6.70;3.20;;;;;;;19.94;74.20;98776.02;105533;1261;72687;-23
2023/06/19 04:18:35;;;;;;;3.50;3.20;;;;;;;19.85;75.09;98779.59;105794;1257;61118;-23
2023/06/19 04:21:04;;;;;;;6.30;2.70;;;;;;;19.82;75.09;98782.23;105556;1257;61212;-23
2023/06/19 04:23:32;;;;;;;3.60;2.70;;;;;;;20.29;73.95;98781.59;105454;1254;73895;-23
2023/06/19 04:25:59;;;;;;;3.30;3.00;;;;;;;20.80;71.10;98774.80;105632;1257;74294;-23
2023/06/19 04:28:26;;;;;;;7.20;3.00;;;;;;;20.95;70.22;98774.20;105654;1256;73150;-23
2023/06/19 04:30:59;;;;;;;3.10;2.80;;;;;;;20.84;70.19;98778.72;105537;1252;62278;-23
2023/06/19 04:33:28;;;;;;;3.30;2.70;;;;;;;20.50;71.30;98780.01;105421;1254;61221;-23
2023/06/19 04:35:56;;;;;;;12.60;3.20;;;;;;;20.42;71.81;98782.64;105502;1255;73919;-23
2023/06/19 04:38:23;;;;;;;2.90;2.70;;;;;;;20.30;71.81;98777.66;105506;1254;74458;-23
2023/06/19 04:40:51;;;;;;;4.10;2.70;;;;;;;20.32;71.64;98779.30;105568;1257;73019;-23
2023/06/19 04:43:20;;;;;;;2.10;1.90;;;;;;;20.42;72.40;98776.61;105576;1259;61071;-23
2023/06/19 04:45:47;;;;;;;5.00;2.60;;;;;;;21.08;70.59;98773.20;105837;1257;61141;-23
2023/06/19 04:48:14;;;;;;;2.80;2.50;;;;;;;21.69;67.60;98771.63;105845;1254;73741;-23
2023/06/19 04:50:41;;;;;;;19.30;3.60;;;;;;;21.77;66.45;98772.85;105904;1254;74408;-23
2023/06/19 04:53:08;;;;;;;2.80;2.50;;;;;;;21.48;67.56;98776.34;105916;1254;72459;-23
2023/06/19 04:55:35;;;;;;;2.90;2.60;;;;;;;21.37;67.73;98775.06;105885;1254;61147;-23
2023/06/19 04:58:02;;;;;;;8.60;3.50;;;;;;;21.06;68.70;98781.04;105573;1260;61164;-23
2023/06/19 05:00:29;;;;;;;3.20;2.90;;;;;;;20.99;69.99;98783.17;105777;1254;73764;-23
2023/06/19 05:02:59;;;;;;;3.90;2.90;;;;;;;20.77;70.47;98779.14;105866;1254;74177;-24
2023/06/19 05:05:30;;;;;;;4.00;2.90;;;;;;;20.52;71.12;98783.27;105656;1254;73090;-23
2023/06/19 05:07:56;;;;;;;3.40;2.90;;;;;;;20.38;71.83;98788.60;105624;1258;61153;-23
2023/06/19 05:10:23;;;;;;;3.20;2.50;;;;;;;20.45;71.98;98793.40;105651;1257;61126;-23
2023/06/19 05:12:51;;;;;;;4.70;2.00;;;;;;;20.34;72.19;98794.11;105838;1254;73645;-23
2023/06/19 05:15:18;;;;;;;2.90;2.20;;;;;;;20.63;71.36;98795.85;105453;1261;74341;-23
2023/06/19 05:17:46;;;;;;;3.60;2.40;;;;;;;20.99;69.83;98793.60;105572;1254;72669;-23
2023/06/19 05:20:13;;;;;;;2.80;2.30;;;;;;;21.05;69.08;98792.97;105608;1254;61124;-23
2023/06/19 05:22:40;;;;;;;2.30;2.10;;;;;;;21.03;68.58;98793.04;105744;1257;62619;-23
2023/06/19 05:25:08;;;;;;;2.90;2.60;;;;;;;20.95;68.73;98793.99;105824;1254;74366;-23
2023/06/19 05:27:34;;;;;;;5.00;2.20;;;;;;;20.81;69.45;98791.70;105646;1260;74370;-23
2023/06/19 05:30:02;;;;;;;4.00;2.30;;;;;;;20.92;68.91;98787.76;105837;1254;73076;-23
2023/06/19 05:32:29;;;;;;;2.70;2.40;;;;;;;20.97;69.74;98784.35;105472;1255;61128;-24
2023/06/19 05:34:56;;;;;;;2.50;2.30;;;;;;;21.12;69.24;98779.18;105820;1254;61167;-24
2023/06/19 05:37:23;;;;;;;4.60;2.50;;;;;;;21.24;68.87;98784.20;105840;1254;73843;-23
2023/06/19 05:39:50;;;;;;;4.50;2.60;;;;;;;21.43;68.01;98789.90;105650;1254;74121;-23
2023/06/19 05:42:17;;;;;;;3.30;2.40;;;;;;;21.52;67.81;98792.55;105631;1253;72652;-23
2023/06/19 05:44:44;;;;;;;4.10;2.40;;;;;;;21.47;67.57;98791.48;105582;1254;61065;-23
2023/06/19 05:47:11;;;;;;;3.00;2.30;;;;;;;21.45;67.43;98791.39;105617;1256;61132;-23
2023/06/19 05:49:40;;;;;;;15.60;2.60;;;;;;;21.76;67.72;98791.88;105492;1254;73864;-23
2023/06/19 05:52:08;;;;;;;3.50;2.30;;;;;;;22.03;66.06;98790.69;105621;1259;74227;-23
2023/06/19 05:54:34;;;;;;;2.10;1.90;;;;;;;21.96;65.77;98793.67;105739;1253;72699;-23
2023/06/19 05:57:05;;;;;;;2.40;2.00;;;;;;;22.00;65.20;98793.83;105767;1254;61102;-23
2023/06/19 05:59:32;;;;;;;2.30;2.10;;;;;;;21.93;65.09;98789.68;105646;1255;61102;-23
2023/06/19 06:02:00;;;;;;;5.00;2.10;;;;;;;21.85;65.16;98790.70;105944;1252;74612;-23
2023/06/19 06:04:27;;;;;;;4.10;2.20;;;;;;;21.72;66.06;98793.44;105882;1253;74210;-22
2023/06/19 06:06:54;;;;;;;4.60;2.20;;;;;;;21.72;66.87;98797.52;105676;1257;72179;-23
2023/06/19 06:09:22;;;;;;;3.10;2.00;;;;;;;21.55;66.67;98793.09;105695;1254;61157;-23
2023/06/19 06:11:48;;;;;;;1.80;1.60;;;;;;;21.68;66.48;98795.23;105824;1253;61160;-23
2023/06/19 06:14:15;;;;;;;2.10;1.90;;;;;;;21.68;66.84;98794.38;105850;1254;73760;-23
2023/06/19 06:16:42;;;;;;;2.30;2.10;;;;;;;21.76;66.04;98798.61;105901;1253;74325;-22
2023/06/19 06:19:09;;;;;;;4.20;2.00;;;;;;;21.79;65.74;98799.31;105713;1253;72623;-23
2023/06/19 06:21:36;;;;;;;2.50;2.30;;;;;;;21.84;65.31;98798.79;105838;1253;61150;-22
2023/06/19 06:24:04;;;;;;;4.20;2.50;;;;;;;21.96;65.03;98800.08;105799;1257;61132;-22
2023/06/19 06:26:31;;;;;;;2.50;2.10;;;;;;;22.08;64.07;98795.97;105693;1258;73778;-22
2023/06/19 06:28:57;;;;;;;3.20;2.60;;;;;;;22.12;64.80;98787.70;105830;1254;74431;-22
2023/06/19 06:31:24;;;;;;;7.10;3.10;;;;;;;22.07;65.16;98784.11;105862;1252;73178;-22
2023/06/19 06:33:51;;;;;;;3.30;2.50;;;;;;;22.26;65.37;98783.17;105716;1253;61145;-23
2023/06/19 06:36:18;;;;;;;2.40;2.20;;;;;;;22.39;63.83;98782.17;105618;1254;61119;-23
2023/06/19 06:39:02;;;;;;;;;;;;;;;22.56;62.56;98780.01;105542;1254;73424;-23
2023/06/19 06:41:29;;;;;;;3.30;2.40;;;;;;;22.54;62.95;98771.45;105567;1257;74286;-23
2023/06/19 06:43:56;;;;;;;3.10;2.50;;;;;;;22.61;63.31;98773.29;105739;1257;73217;-23
2023/06/19 06:47:56;;;;;;;4.90;2.60;;;;;;;22.71;62.97;98774.16;102632;1291;600026;-22
2023/06/19 06:58:03;;;;;;;5.50;2.20;;;;;;;23.39;58.75;98767.14;102652;1291;600327;-22
2023/06/19 07:00:30;;;;;;;6.80;2.40;;;;;;;23.41;59.27;98766.34;105046;1267;61180;-22
2023/06/19 07:02:58;;;;;;;3.50;2.30;;;;;;;23.26;59.74;98770.61;105046;1269;61110;-22
2023/06/19 07:05:26;;;;;;;3.60;2.20;;;;;;;22.93;59.68;98772.16;104831;1267;70404;-22
2023/06/19 07:15:34;;;;;;;4.60;2.20;;;;;;;23.27;59.86;98780.09;102673;1292;599891;-22
2023/06/19 07:25:41;;;;;;;3.50;2.20;;;;;;;23.37;58.89;98787.58;102550;1292;599602;-22
2023/06/19 07:28:09;;;;;;;2.60;2.10;;;;;;;23.25;59.43;98789.77;104826;1267;61186;-22
2023/06/19 07:30:36;;;;;;;4.70;2.10;;;;;;;23.10;59.16;98786.66;104811;1272;61109;-22
2023/06/19 07:33:04;;;;;;;2.50;2.00;;;;;;;23.23;59.41;98789.82;104803;1272;72192;-23
2023/06/19 07:35:32;;;;;;;3.40;2.10;;;;;;;23.51;59.31;98789.23;104802;1267;74362;-24
2023/06/19 07:44:20;;;;;;;26.50;2.60;;;;;;;23.85;57.18;98793.77;102648;1292;600145;-23
2023/06/19 07:46:48;;;;;;;3.40;1.50;;;;;;;24.11;56.07;98795.12;104872;1270;61215;-23
2023/06/19 07:49:16;;;;;;;3.30;1.50;;;;;;;24.45;55.46;98795.95;104799;1269;61092;-23
2023/06/19 07:51:44;;;;;;;5.00;1.90;;;;;;;24.10;54.93;98790.85;104822;1271;70954;-23
2023/06/19 07:54:11;;;;;;;1.90;1.60;;;;;;;24.34;55.79;98791.48;104799;1270;74279;-24
2023/06/19 07:56:40;;;;;;;2.20;1.70;;;;;;;24.66;54.91;98793.41;105725;1254;71429;-23
2023/06/19 07:59:08;;;;;;;2.30;1.80;;;;;;;24.75;55.14;98790.56;103803;1258;2639667;-23
2023/06/19 08:01:35;;;;;;;2.50;1.70;;;;;;;25.03;54.04;98787.17;105765;1252;61058;-23
2023/06/19 08:04:03;;;;;;;4.50;1.90;;;;;;;25.05;53.55;98791.25;105718;1266;72212;-23
2023/06/19 08:13:50;;;;;;;4.90;1.80;;;;;;;25.20;52.81;98793.34;102695;1295;601045;-22
2023/06/19 08:16:18;;;;;;;6.10;2.00;;;;;;;25.43;52.39;98797.27;104868;1269;61219;-22
2023/06/19 08:18:46;;;;;;;3.50;1.60;;;;;;;25.55;51.07;98800.91;104853;1263;61045;-22
2023/06/19 08:21:14;;;;;;;3.20;1.90;;;;;;;25.53;51.13;98800.42;104893;1270;71956;-23
2023/06/19 08:31:26;;;;;;;3.90;1.70;;;;;;;26.09;51.16;98799.58;102634;1294;600022;-22
2023/06/19 08:33:55;;;;;;;2.80;2.40;;;;;;;26.15;49.75;98797.98;104871;1267;61071;-22
2023/06/19 08:36:23;;;;;;;3.60;2.40;;;;;;;25.83;50.63;98798.55;104854;1271;61500;-23
2023/06/19 08:38:52;;;;;;;3.70;2.10;;;;;;;26.20;49.71;98794.48;105262;1267;70057;-23
2023/06/19 08:41:20;;;;;;;2.60;2.00;;;;;;;26.52;48.67;98792.44;105187;1266;73232;-23
2023/06/19 08:43:48;;;;;;;4.80;2.60;;;;;;;26.48;49.37;98790.33;103391;1267;2704747;-24
2023/06/19 08:46:20;;;;;;;42.20;4.80;;;;;;;26.45;50.17;98790.13;104915;1265;61709;-23
2023/06/19 08:48:50;;;;;;;2.60;2.20;;;;;;;26.61;48.96;98790.84;105195;1266;61297;-23
2023/06/19 08:59:18;;;;;;;3.60;2.40;;;;;;;27.16;49.28;98785.26;102616;1290;599433;-22
2023/06/19 09:01:51;;;;;;;3.90;2.30;;;;;;;26.69;48.65;98785.45;104610;1270;61289;-22
2023/06/19 09:04:26;;;;;;;3.10;2.20;;;;;;;26.55;49.52;98790.30;104798;1264;61727;-22
2023/06/19 09:06:55;;;;;;;3.90;2.60;;;;;;;26.64;49.69;98788.02;104774;1267;72296;-22
2023/06/19 09:09:24;;;;;;;3.30;2.40;;;;;;;27.06;49.78;98784.73;104787;1264;73501;-22
2023/06/19 09:12:03;;;;;;;8.70;3.00;;;;;;;27.10;49.06;98784.31;102899;1264;2664797;-22
2023/06/19 09:14:34;;;;;;;5.80;3.10;;;;;;;26.69;49.45;98785.66;104849;1262;61189;-22
2023/06/19 09:17:03;;;;;;;3.80;2.60;;;;;;;26.21;49.63;98785.61;105300;1266;61112;-22
2023/06/19 09:27:13;;;;;;;11.90;2.90;;;;;;;26.29;50.32;98775.58;102699;1296;600186;-22
2023/06/19 09:29:42;;;;;;;3.60;2.60;;;;;;;26.37;50.29;98778.52;104861;1267;61273;-22
2023/06/19 09:32:19;;;;;;;3.40;2.30;;;;;;;26.39;50.34;98779.25;105264;1266;61895;-22
2023/06/19 09:34:49;;;;;;;15.00;3.50;;;;;;;26.35;50.64;98775.87;105265;1260;70292;-22
2023/06/19 09:45:04;;;;;;;4.00;2.80;;;;;;;25.95;51.86;98790.54;102702;1295;599563;-22
2023/06/19 09:47:35;;;;;;;4.50;2.50;;;;;;;26.01;51.74;98795.28;108499;1267;58869;-23
2023/06/19 09:50:06;;;;;;;2.70;2.50;;;;;;;25.83;52.43;98793.08;108558;1264;60135;-23
2023/06/19 09:52:33;;;;;;;3.00;2.30;;;;;;;25.89;52.78;98801.42;108541;1264;73446;-23
2023/06/19 09:55:05;;;;;;;4.90;2.50;;;;;;;25.91;52.57;98795.81;108617;1265;74310;-23
2023/06/19 09:57:32;;;;;;;5.30;2.90;;;;;;;25.93;53.18;98798.90;106631;1264;2512531;-23
2023/06/19 10:00:09;;;;;;;5.50;2.50;;;;;;;25.78;52.78;98796.80;108615;1264;58809;-23
2023/06/19 10:02:40;;;;;;;3.30;3.00;;;;;;;25.76;53.70;98797.83;108662;1264;58801;-23
2023/06/19 10:05:11;;;;;;;3.40;3.10;;;;;;;25.70;54.49;98797.93;108736;1262;70155;-23
2023/06/19 10:07:42;;;;;;;3.00;2.70;;;;;;;25.69;53.74;98795.02;108801;1262;74385;-23
2023/06/19 10:10:12;;;;;;;3.10;2.70;;;;;;;25.72;53.42;98795.41;108727;1264;71382;-23
2023/06/19 10:12:44;;;;;;;2.80;2.50;;;;;;;25.64;55.17;98795.14;108755;1263;58875;-23
2023/06/19 10:15:19;;;;;;;2.80;2.50;;;;;;;25.75;54.95;98794.27;108646;1263;59039;-23
2023/06/19 10:17:50;;;;;;;4.10;2.60;;;;;;;25.52;55.21;98796.79;108662;1264;72755;-23
2023/06/19 10:20:33;;;;;;;3.70;2.90;;;;;;;25.37;56.92;98792.19;108677;1264;73586;-23
2023/06/19 10:23:19;;;;;;;4.00;3.60;;;;;;;24.97;58.72;98791.27;108751;1267;71506;-23
2023/06/19 10:25:53;;;;;;;4.80;3.50;;;;;;;24.38;60.62;98794.13;108767;1264;58883;-23
2023/06/19 10:28:23;;;;;;;5.20;3.50;;;;;;;24.25;62.09;98797.97;108735;1262;60041;-23
2023/06/19 10:30:52;;;;;;;3.50;3.20;;;;;;;24.29;62.82;98799.27;108743;1262;73074;-23
2023/06/19 10:33:21;;;;;;;4.10;3.70;;;;;;;24.52;62.07;98798.65;108746;1262;74523;-23
2023/06/19 10:35:48;;;;;;;5.50;4.00;;;;;;;24.24;61.05;98802.09;108692;1271;72688;-23
2023/06/19 10:38:16;;;;;;;4.00;3.70;;;;;;;23.83;63.11;98798.86;109200;1254;60318;-23
2023/06/19 10:40:44;;;;;;;4.70;3.90;;;;;;;23.80;63.32;98802.45;109233;1260;58840;-23
2023/06/19 10:43:13;;;;;;;5.80;4.00;;;;;;;23.37;63.94;98803.91;109182;1254;73149;-23
2023/06/19 10:45:40;;;;;;;5.00;4.50;;;;;;;23.36;64.47;98799.98;109154;1254;74296;-23
2023/06/19 10:48:08;;;;;;;4.60;4.20;;;;;;;23.28;65.61;98803.83;109122;1254;72693;-23
2023/06/19 10:50:41;;;;;;;4.70;4.10;;;;;;;23.31;65.29;98799.65;109212;1257;58871;-23
2023/06/19 10:53:09;;;;;;;51.10;6.30;;;;;;;23.40;64.79;98799.08;109111;1254;60024;-23
2023/06/19 10:55:36;;;;;;;5.80;4.10;;;;;;;23.46;64.14;98794.13;109114;1260;73046;-23
2023/06/19 10:58:04;;;;;;;4.50;3.70;;;;;;;23.66;64.70;98788.83;109275;1257;75750;-23
2023/06/19 11:00:33;;;;;;;5.30;4.00;;;;;;;23.56;64.53;98789.73;109162;1257;71388;-23
2023/06/19 11:03:00;;;;;;;4.60;3.90;;;;;;;23.52;64.81;98792.36;108952;1256;59190;-23
2023/06/19 11:05:28;;;;;;;4.40;4.00;;;;;;;23.80;64.57;98792.83;109155;1257;60063;-23
2023/06/19 11:07:57;;;;;;;5.20;3.90;;;;;;;24.08;63.23;98786.52;109084;1256;73043;-24
2023/06/19 11:10:27;;;;;;;4.00;3.50;;;;;;;24.02;63.31;98785.39;109054;1255;75210;-23
2023/06/19 11:12:55;;;;;;;4.40;4.00;;;;;;;23.85;63.64;98784.41;109033;1256;72759;-23
2023/06/19 11:15:33;;;;;;;4.30;3.90;;;;;;;23.77;63.96;98779.87;109019;1257;58848;-23
2023/06/19 11:18:01;;;;;;;6.00;4.30;;;;;;;24.05;64.00;98778.80;109109;1263;59225;-23
2023/06/19 11:20:29;;;;;;;3.90;3.50;;;;;;;24.04;63.46;98779.26;109053;1257;73116;-23
2023/06/19 11:23:00;;;;;;;5.80;4.00;;;;;;;24.15;63.00;98771.19;109116;1257;73027;-23
2023/06/19 11:25:35;;;;;;;6.60;4.20;;;;;;;24.26;62.91;98774.42;109007;1256;71731;-23
2023/06/19 11:28:13;;;;;;;5.60;4.10;;;;;;;24.41;63.26;98776.62;108972;1264;58803;-23
2023/06/19 11:30:43;;;;;;;5.80;3.90;;;;;;;24.10;62.84;98771.84;109042;1256;58940;-23
2023/06/19 11:33:21;;;;;;;4.50;4.00;;;;;;;24.26;63.21;98776.63;109071;1255;74222;-23
2023/06/19 11:35:50;;;;;;;4.40;3.90;;;;;;;24.29;62.12;98771.08;109130;1257;73028;-23
2023/06/19 11:38:23;;;;;;;5.80;4.00;;;;;;;24.29;63.35;98772.50;109109;1257;71401;-23
2023/06/19 11:40:51;;;;;;;4.80;4.30;;;;;;;24.07;63.51;98774.78;108956;1257;60257;-23
2023/06/19 11:43:26;;;;;;;4.50;3.90;;;;;;;24.18;63.22;98774.67;109123;1256;58777;-24
2023/06/19 11:46:00;;;;;;;5.50;4.80;;;;;;;23.78;62.68;98770.04;108986;1256;73064;-23
2023/06/19 11:48:28;;;;;;;8.80;4.70;;;;;;;23.65;63.91;98769.38;108980;1257;73051;-23
2023/06/19 11:50:56;;;;;;;6.10;4.00;;;;;;;23.64;63.95;98761.74;109096;1255;71551;-23
2023/06/19 11:53:24;;;;;;;21.90;5.50;;;;;;;23.75;65.02;98771.63;109139;1255;59073;-23
2023/06/19 11:55:51;;;;;;;4.30;3.90;;;;;;;23.83;63.99;98763.09;109033;1257;60046;-23
2023/06/19 11:58:20;;;;;;;6.40;4.80;;;;;;;23.79;63.59;98759.89;109152;1257;73152;-23
2023/06/19 12:00:48;;;;;;;5.30;4.50;;;;;;;23.74;64.04;98760.05;109138;1256;74333;-23
2023/06/19 12:03:16;;;;;;;10.00;4.50;;;;;;;23.67;64.04;98759.50;109132;1257;72970;-23
2023/06/19 12:05:46;;;;;;;7.30;4.40;;;;;;;23.51;64.32;98761.51;109107;1257;60102;-23
2023/06/19 12:08:14;;;;;;;17.70;5.80;;;;;;;23.57;64.12;98760.42;109058;1257;60057;-23
2023/06/19 12:10:41;;;;;;;4.80;4.40;;;;;;;23.55;63.65;98763.13;109130;1257;73115;-23
2023/06/19 12:13:09;;;;;;;5.00;4.50;;;;;;;23.55;64.39;98762.23;109253;1257;73003;-23
2023/06/19 12:15:36;;;;;;;5.10;4.60;;;;;;;23.64;63.90;98766.69;109120;1257;71695;-23
2023/06/19 12:18:06;;;;;;;10.10;4.70;;;;;;;23.66;63.69;98766.02;109098;1257;58957;-23
2023/06/19 12:20:34;;;;;;;4.60;4.20;;;;;;;23.84;64.55;98766.67;109009;1256;60086;-23
2023/06/19 12:23:02;;;;;;;4.50;4.10;;;;;;;23.99;62.47;98757.29;109143;1257;72093;-23
2023/06/19 12:25:30;;;;;;;4.30;3.80;;;;;;;23.89;63.78;98757.30;109066;1256;75429;-23
2023/06/19 12:27:57;;;;;;;4.80;4.30;;;;;;;23.76;63.67;98760.36;109205;1257;71401;-23
2023/06/19 12:30:25;;;;;;;6.70;4.90;;;;;;;23.80;63.96;98759.47;109089;1257;59468;-23
2023/06/19 12:32:53;;;;;;;5.20;4.70;;;;;;;23.81;63.37;98760.70;109130;1257;60024;-23
2023/06/19 12:35:22;;;;;;;10.20;5.10;;;;;;;23.77;63.07;98755.41;109136;1256;73029;-23
2023/06/19 12:37:49;;;;;;;5.90;4.60;;;;;;;23.82;63.12;98749.67;109092;1256;74551;-23
2023/06/19 12:40:17;;;;;;;6.10;4.80;;;;;;;23.92;63.86;98747.20;109092;1260;72683;-23